sensor_id;sensor_type;location;lat;lon;timestamp;pressure;altitude;pressure_sealevel;temperature;humidity
79123;BME280;68526;44.600;26.032;2023-04-01T00:00:14;99519.56;;;8.15;73.91
79123;BME280;68526;44.600;26.032;2023-04-01T00:00:30;99512.53;;;8.14;74.34
79123;BME280;68526;44.600;26.032;2023-04-01T00:00:45;99508.34;;;8.16;74.00
79123;BME280;68526;44.600;26.032;2023-04-01T00:01:03;99507.53;;;8.16;74.00
79123;BME280;68526;44.600;26.032;2023-04-01T00:01:20;99514.44;;;8.13;74.08
79123;BME280;68526;44.600;26.032;2023-04-01T00:01:36;99513.66;;;8.13;74.16
79123;BME280;68526;44.600;26.032;2023-04-01T00:01:52;99514.91;;;8.15;74.24
79123;BME280;68526;44.600;26.032;2023-04-01T00:02:08;99514.13;;;8.15;74.12
79123;BME280;68526;44.600;26.032;2023-04-01T00:02:25;99507.06;;;8.14;74.07
79123;BME280;68526;44.600;26.032;2023-04-01T00:02:41;99505.13;;;8.14;73.98
79123;BME280;68526;44.600;26.032;2023-04-01T00:02:57;99515.72;;;8.16;74.21
79123;BME280;68526;44.600;26.032;2023-04-01T00:03:13;99517.66;;;8.15;74.35
79123;BME280;68526;44.600;26.032;2023-04-01T00:03:29;99518.78;;;8.14;73.84
79123;BME280;68526;44.600;26.032;2023-04-01T00:03:45;99517.19;;;8.13;74.21
79123;BME280;68526;44.600;26.032;2023-04-01T00:04:02;99521.84;;;8.13;73.93
79123;BME280;68526;44.600;26.032;2023-04-01T00:04:18;99520.88;;;8.09;73.97
79123;BME280;68526;44.600;26.032;2023-04-01T00:04:34;99521.19;;;8.07;74.10
79123;BME280;68526;44.600;26.032;2023-04-01T00:04:50;99518.16;;;8.09;74.10
79123;BME280;68526;44.600;26.032;2023-04-01T00:05:07;99517.00;;;8.10;74.09
79123;BME280;68526;44.600;26.032;2023-04-01T00:05:23;99513.50;;;8.09;74.60
79123;BME280;68526;44.600;26.032;2023-04-01T00:05:40;99510.75;;;8.09;74.00
79123;BME280;68526;44.600;26.032;2023-04-01T00:05:57;99503.72;;;8.08;74.22
79123;BME280;68526;44.600;26.032;2023-04-01T00:06:15;99508.03;;;8.09;74.06
79123;BME280;68526;44.600;26.032;2023-04-01T00:06:33;99510.75;;;8.09;74.45
79123;BME280;68526;44.600;26.032;2023-04-01T00:06:48;99504.50;;;8.09;74.20
79123;BME280;68526;44.600;26.032;2023-04-01T00:07:07;99508.03;;;8.09;74.20
79123;BME280;68526;44.600;26.032;2023-04-01T00:07:23;99504.50;;;8.09;74.54
79123;BME280;68526;44.600;26.032;2023-04-01T00:07:39;99512.34;;;8.10;74.22
79123;BME280;68526;44.600;26.032;2023-04-01T00:07:55;99506.91;;;8.10;74.25
79123;BME280;68526;44.600;26.032;2023-04-01T00:08:11;99506.44;;;8.08;74.15
79123;BME280;68526;44.600;26.032;2023-04-01T00:08:28;99513.16;;;8.11;74.23
79123;BME280;68526;44.600;26.032;2023-04-01T00:08:45;99517.81;;;8.10;74.42
79123;BME280;68526;44.600;26.032;2023-04-01T00:09:01;99515.09;;;8.10;74.12
79123;BME280;68526;44.600;26.032;2023-04-01T00:09:16;99504.84;;;8.07;74.26
79123;BME280;68526;44.600;26.032;2023-04-01T00:09:32;99520.53;;;8.10;74.08
79123;BME280;68526;44.600;26.032;2023-04-01T00:09:48;99513.31;;;8.06;74.34
79123;BME280;68526;44.600;26.032;2023-04-01T00:10:06;99503.22;;;7.97;74.53
79123;BME280;68526;44.600;26.032;2023-04-01T00:10:23;99514.31;;;8.01;74.51
79123;BME280;68526;44.600;26.032;2023-04-01T00:10:39;99516.53;;;7.99;74.86
79123;BME280;68526;44.600;26.032;2023-04-01T00:10:55;99514.63;;;7.99;74.72
79123;BME280;68526;44.600;26.032;2023-04-01T00:11:12;99515.91;;;7.93;75.33
79123;BME280;68526;44.600;26.032;2023-04-01T00:11:28;99513.97;;;7.94;75.18
79123;BME280;68526;44.600;26.032;2023-04-01T00:11:45;99516.06;;;7.97;74.93
79123;BME280;68526;44.600;26.032;2023-04-01T00:12:00;99525.06;;;7.97;75.12
79123;BME280;68526;44.600;26.032;2023-04-01T00:12:16;99523.78;;;7.95;75.19
79123;BME280;68526;44.600;26.032;2023-04-01T00:12:32;99519.91;;;7.87;75.57
79123;BME280;68526;44.600;26.032;2023-04-01T00:12:48;99525.38;;;7.87;75.61
79123;BME280;68526;44.600;26.032;2023-04-01T00:13:05;99524.91;;;7.85;75.48
79123;BME280;68526;44.600;26.032;2023-04-01T00:13:21;99528.75;;;7.84;75.74
79123;BME280;68526;44.600;26.032;2023-04-01T00:13:38;99527.63;;;7.85;75.66
79123;BME280;68526;44.600;26.032;2023-04-01T00:13:54;99520.25;;;7.86;75.66
79123;BME280;68526;44.600;26.032;2023-04-01T00:14:10;99520.72;;;7.88;75.47
79123;BME280;68526;44.600;26.032;2023-04-01T00:14:26;99518.00;;;7.88;75.86
79123;BME280;68526;44.600;26.032;2023-04-01T00:14:42;99514.47;;;7.87;75.67
79123;BME280;68526;44.600;26.032;2023-04-01T00:14:58;99523.44;;;7.88;75.54
79123;BME280;68526;44.600;26.032;2023-04-01T00:15:14;99514.97;;;7.89;75.58
79123;BME280;68526;44.600;26.032;2023-04-01T00:15:31;99508.72;;;7.89;75.41
79123;BME280;68526;44.600;26.032;2023-04-01T00:15:46;99513.34;;;7.88;75.94
79123;BME280;68526;44.600;26.032;2023-04-01T00:16:09;99495.72;;;7.86;75.54
79123;BME280;68526;44.600;26.032;2023-04-01T00:16:26;99503.25;;;7.89;75.63
79123;BME280;68526;44.600;26.032;2023-04-01T00:16:42;99490.09;;;7.91;75.48
79123;BME280;68526;44.600;26.032;2023-04-01T00:16:57;99497.47;;;7.90;75.74
79123;BME280;68526;44.600;26.032;2023-04-01T00:17:13;99502.94;;;7.90;75.58
79123;BME280;68526;44.600;26.032;2023-04-01T00:17:30;99495.53;;;7.91;75.75
79123;BME280;68526;44.600;26.032;2023-04-01T00:17:46;99503.41;;;7.92;75.68
79123;BME280;68526;44.600;26.032;2023-04-01T00:18:02;99504.19;;;7.93;75.75
79123;BME280;68526;44.600;26.032;2023-04-01T00:18:18;99517.50;;;7.94;75.59
79123;BME280;68526;44.600;26.032;2023-04-01T00:18:34;99509.31;;;7.94;75.24
79123;BME280;68526;44.600;26.032;2023-04-01T00:18:50;99517.34;;;7.91;75.45
79123;BME280;68526;44.600;26.032;2023-04-01T00:19:07;99521.84;;;7.87;75.75
79123;BME280;68526;44.600;26.032;2023-04-01T00:19:23;99516.25;;;7.83;76.06
79123;BME280;68526;44.600;26.032;2023-04-01T00:19:39;99518.34;;;7.78;76.46
79123;BME280;68526;44.600;26.032;2023-04-01T00:19:55;99518.34;;;7.78;76.85
79123;BME280;68526;44.600;26.032;2023-04-01T00:20:12;99517.69;;;7.81;76.12
79123;BME280;68526;44.600;26.032;2023-04-01T00:20:29;99512.41;;;7.84;76.23
79123;BME280;68526;44.600;26.032;2023-04-01T00:20:48;99519.13;;;7.87;76.23
79123;BME280;68526;44.600;26.032;2023-04-01T00:21:04;99508.53;;;7.85;76.01
79123;BME280;68526;44.600;26.032;2023-04-01T00:21:21;99510.94;;;7.87;76.03
79123;BME280;68526;44.600;26.032;2023-04-01T00:21:39;99512.25;;;7.89;75.68
79123;BME280;68526;44.600;26.032;2023-04-01T00:21:55;99509.50;;;7.89;75.75
79123;BME280;68526;44.600;26.032;2023-04-01T00:22:12;99505.16;;;7.88;75.98
79123;BME280;68526;44.600;26.032;2023-04-01T00:22:28;99512.53;;;7.88;76.13
79123;BME280;68526;44.600;26.032;2023-04-01T00:22:44;99518.50;;;7.90;75.88
79123;BME280;68526;44.600;26.032;2023-04-01T00:23:00;99513.50;;;7.92;75.87
79123;BME280;68526;44.600;26.032;2023-04-01T00:23:16;99517.03;;;7.92;76.18
79123;BME280;68526;44.600;26.032;2023-04-01T00:23:32;99518.63;;;7.93;76.22
79123;BME280;68526;44.600;26.032;2023-04-01T00:23:49;99513.97;;;7.94;75.72
79123;BME280;68526;44.600;26.032;2023-04-01T00:24:06;99519.44;;;7.94;76.04
79123;BME280;68526;44.600;26.032;2023-04-01T00:24:22;99517.19;;;7.96;75.61
79123;BME280;68526;44.600;26.032;2023-04-01T00:24:38;99512.53;;;7.96;75.95
79123;BME280;68526;44.600;26.032;2023-04-01T00:24:54;99509.03;;;7.96;75.72
79123;BME280;68526;44.600;26.032;2023-04-01T00:25:10;99511.25;;;7.94;75.93
79123;BME280;68526;44.600;26.032;2023-04-01T00:25:26;99510.63;;;7.97;75.95
79123;BME280;68526;44.600;26.032;2023-04-01T00:25:43;99513.19;;;7.93;75.90
79123;BME280;68526;44.600;26.032;2023-04-01T00:26:01;99503.72;;;7.91;75.74
79123;BME280;68526;44.600;26.032;2023-04-01T00:26:18;99505.97;;;7.97;76.07
79123;BME280;68526;44.600;26.032;2023-04-01T00:26:36;99511.09;;;7.99;75.49
79123;BME280;68526;44.600;26.032;2023-04-01T00:26:52;99508.34;;;7.99;75.69
79123;BME280;68526;44.600;26.032;2023-04-01T00:27:09;99507.22;;;8.00;75.64
79123;BME280;68526;44.600;26.032;2023-04-01T00:27:26;99513.50;;;8.00;75.48
79123;BME280;68526;44.600;26.032;2023-04-01T00:27:42;99501.78;;;8.00;75.89
79123;BME280;68526;44.600;26.032;2023-04-01T00:27:58;99510.47;;;8.02;75.75
79123;BME280;68526;44.600;26.032;2023-04-01T00:28:14;99505.00;;;8.02;75.62
79123;BME280;68526;44.600;26.032;2023-04-01T00:28:31;99500.34;;;8.02;75.65
79123;BME280;68526;44.600;26.032;2023-04-01T00:28:49;99506.59;;;8.03;75.47
79123;BME280;68526;44.600;26.032;2023-04-01T00:29:05;99509.31;;;8.03;75.81
79123;BME280;68526;44.600;26.032;2023-04-01T00:29:21;99502.28;;;8.02;75.77
79123;BME280;68526;44.600;26.032;2023-04-01T00:29:41;99504.66;;;8.03;75.46
79123;BME280;68526;44.600;26.032;2023-04-01T00:29:57;99495.84;;;7.98;76.02
79123;BME280;68526;44.600;26.032;2023-04-01T00:30:14;99496.81;;;8.02;75.69
79123;BME280;68526;44.600;26.032;2023-04-01T00:30:30;99494.09;;;8.02;75.81
79123;BME280;68526;44.600;26.032;2023-04-01T00:30:45;99501.94;;;8.03;75.41
79123;BME280;68526;44.600;26.032;2023-04-01T00:31:05;99494.88;;;8.02;75.58
79123;BME280;68526;44.600;26.032;2023-04-01T00:31:21;99499.22;;;8.03;75.60
79123;BME280;68526;44.600;26.032;2023-04-01T00:31:37;99495.34;;;8.04;75.62
79123;BME280;68526;44.600;26.032;2023-04-01T00:31:53;99495.34;;;8.04;75.80
79123;BME280;68526;44.600;26.032;2023-04-01T00:32:09;99502.41;;;8.06;75.58
79123;BME280;68526;44.600;26.032;2023-04-01T00:32:25;99495.84;;;8.07;75.79
79123;BME280;68526;44.600;26.032;2023-04-01T00:32:42;99495.03;;;8.06;75.84
79123;BME280;68526;44.600;26.032;2023-04-01T00:32:58;99503.53;;;8.04;76.13
79123;BME280;68526;44.600;26.032;2023-04-01T00:33:15;99498.88;;;8.05;75.80
79123;BME280;68526;44.600;26.032;2023-04-01T00:33:32;99497.75;;;8.06;75.90
79123;BME280;68526;44.600;26.032;2023-04-01T00:33:47;99500.81;;;8.04;76.01
79123;BME280;68526;44.600;26.032;2023-04-01T00:34:03;99495.84;;;8.07;75.76
79123;BME280;68526;44.600;26.032;2023-04-01T00:34:20;99501.78;;;8.09;75.63
79123;BME280;68526;44.600;26.032;2023-04-01T00:34:36;99503.22;;;8.06;75.98
79123;BME280;68526;44.600;26.032;2023-04-01T00:34:53;99498.25;;;8.08;75.68
79123;BME280;68526;44.600;26.032;2023-04-01T00:35:09;99496.66;;;8.07;75.81
79123;BME280;68526;44.600;26.032;2023-04-01T00:35:25;99476.94;;;7.93;75.70
79123;BME280;68526;44.600;26.032;2023-04-01T00:35:41;99503.03;;;8.11;75.66
79123;BME280;68526;44.600;26.032;2023-04-01T00:36:05;99501.13;;;8.12;76.14
79123;BME280;68526;44.600;26.032;2023-04-01T00:36:23;99498.38;;;8.12;75.93
79123;BME280;68526;44.600;26.032;2023-04-01T00:36:40;99489.41;;;8.11;75.85
79123;BME280;68526;44.600;26.032;2023-04-01T00:36:56;99504.34;;;8.14;76.11
79123;BME280;68526;44.600;26.032;2023-04-01T00:37:12;99498.88;;;8.14;76.28
79123;BME280;68526;44.600;26.032;2023-04-01T00:37:28;99502.75;;;8.13;76.30
79123;BME280;68526;44.600;26.032;2023-04-01T00:37:45;99498.56;;;8.15;76.39
79123;BME280;68526;44.600;26.032;2023-04-01T00:38:03;99499.19;;;8.12;76.02
79123;BME280;68526;44.600;26.032;2023-04-01T00:38:18;99500.47;;;8.15;76.42
79123;BME280;68526;44.600;26.032;2023-04-01T00:38:34;99501.28;;;8.15;76.26
79123;BME280;68526;44.600;26.032;2023-04-01T00:38:50;99505.59;;;8.16;76.15
79123;BME280;68526;44.600;26.032;2023-04-01T00:39:08;99508.34;;;8.16;76.38
79123;BME280;68526;44.600;26.032;2023-04-01T00:39:24;99507.19;;;8.17;76.60
79123;BME280;68526;44.600;26.032;2023-04-01T00:39:39;99508.00;;;8.18;76.45
79123;BME280;68526;44.600;26.032;2023-04-01T00:39:56;99504.81;;;8.16;76.52
79123;BME280;68526;44.600;26.032;2023-04-01T00:40:24;99504.97;;;8.19;76.28
79123;BME280;68526;44.600;26.032;2023-04-01T00:40:44;99506.09;;;8.18;76.36
79123;BME280;68526;44.600;26.032;2023-04-01T00:41:00;99507.69;;;8.19;76.32
79123;BME280;68526;44.600;26.032;2023-04-01T00:41:17;99500.94;;;8.17;76.54
79123;BME280;68526;44.600;26.032;2023-04-01T00:41:33;99508.00;;;8.18;76.26
79123;BME280;68526;44.600;26.032;2023-04-01T00:41:49;99491.31;;;8.19;76.17
79123;BME280;68526;44.600;26.032;2023-04-01T00:42:05;99498.38;;;8.20;76.37
79123;BME280;68526;44.600;26.032;2023-04-01T00:42:22;99505.44;;;8.21;76.15
79123;BME280;68526;44.600;26.032;2023-04-01T00:42:38;99494.84;;;8.20;76.05
79123;BME280;68526;44.600;26.032;2023-04-01T00:42:55;99493.72;;;8.21;76.34
79123;BME280;68526;44.600;26.032;2023-04-01T00:43:12;99491.00;;;8.21;76.38
79123;BME280;68526;44.600;26.032;2023-04-01T00:43:29;99494.19;;;8.23;75.95
79123;BME280;68526;44.600;26.032;2023-04-01T00:43:48;99491.78;;;8.21;76.22
79123;BME280;68526;44.600;26.032;2023-04-01T00:44:19;99489.41;;;8.20;76.07
79123;BME280;68526;44.600;26.032;2023-04-01T00:44:37;99495.31;;;8.22;76.29
79123;BME280;68526;44.600;26.032;2023-04-01T00:44:54;99491.47;;;8.23;76.35
79123;BME280;68526;44.600;26.032;2023-04-01T00:45:32;99487.94;;;8.22;75.94
79123;BME280;68526;44.600;26.032;2023-04-01T00:45:49;99480.09;;;8.21;76.23
79123;BME280;68526;44.600;26.032;2023-04-01T00:46:05;99489.06;;;8.21;75.98
79123;BME280;68526;44.600;26.032;2023-04-01T00:46:21;99487.13;;;8.22;76.16
79123;BME280;68526;44.600;26.032;2023-04-01T00:46:37;99483.28;;;8.23;76.12
79123;BME280;68526;44.600;26.032;2023-04-01T00:46:52;99491.00;;;8.21;76.30
79123;BME280;68526;44.600;26.032;2023-04-01T00:47:10;99486.66;;;8.20;76.24
79123;BME280;68526;44.600;26.032;2023-04-01T00:47:26;99487.94;;;8.22;76.11
79123;BME280;68526;44.600;26.032;2023-04-01T00:47:43;99482.81;;;8.21;75.92
79123;BME280;68526;44.600;26.032;2023-04-01T00:48:02;99484.41;;;8.22;75.96
79123;BME280;68526;44.600;26.032;2023-04-01T00:48:22;99483.59;;;8.21;75.81
79123;BME280;68526;44.600;26.032;2023-04-01T00:48:41;99483.59;;;8.21;75.83
79123;BME280;68526;44.600;26.032;2023-04-01T00:48:59;99483.94;;;8.20;76.00
79123;BME280;68526;44.600;26.032;2023-04-01T00:49:17;99471.72;;;8.17;75.80
79123;BME280;68526;44.600;26.032;2023-04-01T00:49:36;99480.88;;;8.21;75.77
79123;BME280;68526;44.600;26.032;2023-04-01T00:49:54;99481.69;;;8.22;75.75
79123;BME280;68526;44.600;26.032;2023-04-01T00:50:10;99487.13;;;8.22;76.17
79123;BME280;68526;44.600;26.032;2023-04-01T00:50:26;99475.44;;;8.21;76.23
79123;BME280;68526;44.600;26.032;2023-04-01T00:50:48;99473.16;;;8.23;76.12
79123;BME280;68526;44.600;26.032;2023-04-01T00:51:08;99480.09;;;8.21;76.34
79123;BME280;68526;44.600;26.032;2023-04-01T00:51:27;99474.97;;;8.19;75.94
79123;BME280;68526;44.600;26.032;2023-04-01T00:51:48;99479.63;;;8.19;75.85
79123;BME280;68526;44.600;26.032;2023-04-01T00:52:07;99475.13;;;8.14;76.28
79123;BME280;68526;44.600;26.032;2023-04-01T00:52:25;99476.72;;;8.15;76.09
79123;BME280;68526;44.600;26.032;2023-04-01T00:52:41;99474.00;;;8.15;76.02
79123;BME280;68526;44.600;26.032;2023-04-01T00:52:58;99480.41;;;8.19;76.06
79123;BME280;68526;44.600;26.032;2023-04-01T00:53:17;99476.09;;;8.18;76.46
79123;BME280;68526;44.600;26.032;2023-04-01T00:53:39;99471.91;;;8.21;75.95
79123;BME280;68526;44.600;26.032;2023-04-01T00:53:58;99480.41;;;8.19;76.18
79123;BME280;68526;44.600;26.032;2023-04-01T00:54:17;99471.91;;;8.21;76.17
79123;BME280;68526;44.600;26.032;2023-04-01T00:54:35;99478.94;;;8.22;76.08
79123;BME280;68526;44.600;26.032;2023-04-01T00:54:56;99475.88;;;8.23;76.12
79123;BME280;68526;44.600;26.032;2023-04-01T00:55:15;99479.41;;;8.24;75.76
79123;BME280;68526;44.600;26.032;2023-04-01T00:55:34;99468.03;;;8.22;75.89
79123;BME280;68526;44.600;26.032;2023-04-01T00:55:56;99467.41;;;8.16;76.24
79123;BME280;68526;44.600;26.032;2023-04-01T00:56:17;99470.31;;;8.20;76.21
79123;BME280;68526;44.600;26.032;2023-04-01T00:56:36;99476.22;;;8.22;75.93
79123;BME280;68526;44.600;26.032;2023-04-01T00:56:57;99473.81;;;8.20;75.92
79123;BME280;68526;44.600;26.032;2023-04-01T00:57:19;99471.44;;;8.19;76.18
79123;BME280;68526;44.600;26.032;2023-04-01T00:57:37;99474.63;;;8.21;75.96
79123;BME280;68526;44.600;26.032;2023-04-01T00:57:56;99473.81;;;8.20;76.12
79123;BME280;68526;44.600;26.032;2023-04-01T00:58:16;99475.88;;;8.23;75.93
79123;BME280;68526;44.600;26.032;2023-04-01T00:58:37;99473.50;;;8.22;76.02
79123;BME280;68526;44.600;26.032;2023-04-01T00:58:58;99467.69;;;8.23;75.89
79123;BME280;68526;44.600;26.032;2023-04-01T00:59:20;99470.44;;;8.23;75.96
79123;BME280;68526;44.600;26.032;2023-04-01T00:59:40;99472.84;;;8.25;75.96
79123;BME280;68526;44.600;26.032;2023-04-01T00:59:57;99465.31;;;8.22;75.88
79123;BME280;68526;44.600;26.032;2023-04-01T01:00:16;99464.66;;;8.25;76.13
79123;BME280;68526;44.600;26.032;2023-04-01T01:00:32;99469.78;;;8.26;76.09
79123;BME280;68526;44.600;26.032;2023-04-01T01:00:50;99472.84;;;8.25;76.15
79123;BME280;68526;44.600;26.032;2023-04-01T01:01:08;99475.72;;;8.28;75.85
79123;BME280;68526;44.600;26.032;2023-04-01T01:01:24;99474.13;;;8.27;76.04
79123;BME280;68526;44.600;26.032;2023-04-01T01:01:42;99468.66;;;8.27;75.79
79123;BME280;68526;44.600;26.032;2023-04-01T01:01:58;99471.06;;;8.29;75.70
79123;BME280;68526;44.600;26.032;2023-04-01T01:02:15;99473.00;;;8.28;76.21
79123;BME280;68526;44.600;26.032;2023-04-01T01:02:33;99473.78;;;8.29;75.81
79123;BME280;68526;44.600;26.032;2023-04-01T01:02:50;99464.34;;;8.26;76.18
79123;BME280;68526;44.600;26.032;2023-04-01T01:03:06;99465.59;;;8.29;75.76
79123;BME280;68526;44.600;26.032;2023-04-01T01:03:23;99471.84;;;8.29;75.80
79123;BME280;68526;44.600;26.032;2023-04-01T01:03:39;99469.94;;;8.30;75.85
79123;BME280;68526;44.600;26.032;2023-04-01T01:03:55;99468.03;;;8.30;75.77
79123;BME280;68526;44.600;26.032;2023-04-01T01:04:22;99470.75;;;8.30;76.10
79123;BME280;68526;44.600;26.032;2023-04-01T01:04:38;99468.03;;;8.30;76.23
79123;BME280;68526;44.600;26.032;2023-04-01T01:04:55;99464.16;;;8.32;75.93
79123;BME280;68526;44.600;26.032;2023-04-01T01:05:12;99466.91;;;8.32;76.02
79123;BME280;68526;44.600;26.032;2023-04-01T01:05:35;99461.75;;;8.30;75.76
79123;BME280;68526;44.600;26.032;2023-04-01T01:06:15;99463.38;;;8.31;76.24
79123;BME280;68526;44.600;26.032;2023-04-01T01:06:44;99463.38;;;8.31;75.90
79123;BME280;68526;44.600;26.032;2023-04-01T01:07:12;99462.88;;;8.29;76.23
79123;BME280;68526;44.600;26.032;2023-04-01T01:07:38;99462.06;;;8.28;76.04
79123;BME280;68526;44.600;26.032;2023-04-01T01:08:01;99460.63;;;8.31;75.86
79123;BME280;68526;44.600;26.032;2023-04-01T01:08:25;99459.50;;;8.32;75.80
79123;BME280;68526;44.600;26.032;2023-04-01T01:09:15;99452.63;;;8.26;76.05
79123;BME280;68526;44.600;26.032;2023-04-01T01:09:41;99462.41;;;8.27;76.30
79123;BME280;68526;44.600;26.032;2023-04-01T01:10:04;99469.13;;;8.29;76.06
79123;BME280;68526;44.600;26.032;2023-04-01T01:10:26;99458.09;;;8.26;76.02
79123;BME280;68526;44.600;26.032;2023-04-01T01:10:48;99463.03;;;8.24;76.03
79123;BME280;68526;44.600;26.032;2023-04-01T01:11:08;99465.13;;;8.27;76.08
79123;BME280;68526;44.600;26.032;2023-04-01T01:11:37;99470.25;;;8.28;75.99
79123;BME280;68526;44.600;26.032;2023-04-01T01:11:58;99462.06;;;8.28;75.81
79123;BME280;68526;44.600;26.032;2023-04-01T01:12:21;99462.06;;;8.28;76.01
79123;BME280;68526;44.600;26.032;2023-04-01T01:12:43;99460.00;;;8.25;76.02
79123;BME280;68526;44.600;26.032;2023-04-01T01:13:05;99461.28;;;8.28;75.81
79123;BME280;68526;44.600;26.032;2023-04-01T01:13:31;99461.59;;;8.26;75.67
79123;BME280;68526;44.600;26.032;2023-04-01T01:13:55;99458.88;;;8.26;75.50
79123;BME280;68526;44.600;26.032;2023-04-01T01:14:25;99456.94;;;8.27;75.65
79123;BME280;68526;44.600;26.032;2023-04-01T01:14:52;99456.94;;;8.27;76.03
79123;BME280;68526;44.600;26.032;2023-04-01T01:15:17;99463.22;;;8.27;75.66
79123;BME280;68526;44.600;26.032;2023-04-01T01:15:37;99460.16;;;8.29;75.60
79123;BME280;68526;44.600;26.032;2023-04-01T01:15:58;99460.47;;;8.27;76.00
79123;BME280;68526;44.600;26.032;2023-04-01T01:16:21;99464.00;;;8.28;75.70
79123;BME280;68526;44.600;26.032;2023-04-01T01:16:43;99460.47;;;8.27;75.54
79123;BME280;68526;44.600;26.032;2023-04-01T01:17:06;99464.81;;;8.28;75.93
79123;BME280;68526;44.600;26.032;2023-04-01T01:17:32;99465.94;;;8.27;75.79
79123;BME280;68526;44.600;26.032;2023-04-01T01:17:57;99456.16;;;8.26;75.64
79123;BME280;68526;44.600;26.032;2023-04-01T01:18:19;99459.34;;;8.28;75.47
79123;BME280;68526;44.600;26.032;2023-04-01T01:18:45;99456.47;;;8.25;75.71
79123;BME280;68526;44.600;26.032;2023-04-01T01:19:08;99452.63;;;8.26;75.58
79123;BME280;68526;44.600;26.032;2023-04-01T01:19:52;99456.16;;;8.26;75.42
79123;BME280;68526;44.600;26.032;2023-04-01T01:20:24;99452.97;;;8.24;75.49
79123;BME280;68526;44.600;26.032;2023-04-01T01:21:50;99455.34;;;8.26;75.50
79123;BME280;68526;44.600;26.032;2023-04-01T01:22:32;99449.56;;;8.27;75.63
79123;BME280;68526;44.600;26.032;2023-04-01T01:22:58;99443.31;;;8.27;75.54
79123;BME280;68526;44.600;26.032;2023-04-01T01:24:30;99450.03;;;8.29;75.34
79123;BME280;68526;44.600;26.032;2023-04-01T01:25:05;99450.81;;;8.30;75.32
79123;BME280;68526;44.600;26.032;2023-04-01T01:25:33;99444.25;;;8.31;75.42
79123;BME280;68526;44.600;26.032;2023-04-01T01:26:11;99455.19;;;8.31;75.52
79123;BME280;68526;44.600;26.032;2023-04-01T01:26:48;99438.66;;;8.27;75.49
79123;BME280;68526;44.600;26.032;2023-04-01T01:27:09;99452.44;;;8.31;75.21
79123;BME280;68526;44.600;26.032;2023-04-01T01:27:27;99450.19;;;8.33;75.25
79123;BME280;68526;44.600;26.032;2023-04-01T01:27:49;99449.38;;;8.33;75.12
79123;BME280;68526;44.600;26.032;2023-04-01T01:28:30;99455.47;;;8.29;75.18
79123;BME280;68526;44.600;26.032;2023-04-01T01:29:00;99449.38;;;8.33;75.11
79123;BME280;68526;44.600;26.032;2023-04-01T01:29:34;99447.78;;;8.32;75.46
79123;BME280;68526;44.600;26.032;2023-04-01T01:30:09;99449.56;;;8.27;75.43
79123;BME280;68526;44.600;26.032;2023-04-01T01:30:42;99449.72;;;8.31;75.31
79123;BME280;68526;44.600;26.032;2023-04-01T01:31:12;99453.72;;;8.34;75.30
79123;BME280;68526;44.600;26.032;2023-04-01T01:31:34;99454.06;;;8.32;74.99
79123;BME280;68526;44.600;26.032;2023-04-01T01:31:56;99450.53;;;8.32;75.34
79123;BME280;68526;44.600;26.032;2023-04-01T01:32:28;99445.38;;;8.30;75.16
79123;BME280;68526;44.600;26.032;2023-04-01T01:32:56;99442.97;;;8.28;75.34
79123;BME280;68526;44.600;26.032;2023-04-01T01:33:36;99448.09;;;8.30;75.03
79123;BME280;68526;44.600;26.032;2023-04-01T01:34:06;99441.84;;;8.29;75.44
79123;BME280;68526;44.600;26.032;2023-04-01T01:34:28;99444.56;;;8.29;75.28
79123;BME280;68526;44.600;26.032;2023-04-01T01:34:51;99447.28;;;8.29;75.28
79123;BME280;68526;44.600;26.032;2023-04-01T01:35:18;99444.56;;;8.29;75.07
79123;BME280;68526;44.600;26.032;2023-04-01T01:35:37;99442.63;;;8.30;75.52
79123;BME280;68526;44.600;26.032;2023-04-01T01:35:55;99445.38;;;8.30;75.31
79123;BME280;68526;44.600;26.032;2023-04-01T01:36:13;99438.31;;;8.29;75.40
79123;BME280;68526;44.600;26.032;2023-04-01T01:36:32;99437.50;;;8.28;75.43
79123;BME280;68526;44.600;26.032;2023-04-01T01:36:55;99441.84;;;8.29;75.27
79123;BME280;68526;44.600;26.032;2023-04-01T01:37:15;99437.19;;;8.30;75.09
79123;BME280;68526;44.600;26.032;2023-04-01T01:37:32;99437.50;;;8.28;75.38
79123;BME280;68526;44.600;26.032;2023-04-01T01:37:53;99436.72;;;8.28;75.00
79123;BME280;68526;44.600;26.032;2023-04-01T01:38:13;99431.59;;;8.26;75.05
79123;BME280;68526;44.600;26.032;2023-04-01T01:38:32;99435.13;;;8.27;75.43
79123;BME280;68526;44.600;26.032;2023-04-01T01:38:50;99441.03;;;8.29;74.95
79123;BME280;68526;44.600;26.032;2023-04-01T01:39:08;99436.38;;;8.29;75.00
79123;BME280;68526;44.600;26.032;2023-04-01T01:39:26;99430.13;;;8.29;74.88
79123;BME280;68526;44.600;26.032;2023-04-01T01:39:48;99434.78;;;8.28;75.36
79123;BME280;68526;44.600;26.032;2023-04-01T01:40:07;99428.06;;;8.26;74.96
79123;BME280;68526;44.600;26.032;2023-04-01T01:40:25;99432.38;;;8.27;74.95
79123;BME280;68526;44.600;26.032;2023-04-01T01:40:46;99436.25;;;8.26;75.00
79123;BME280;68526;44.600;26.032;2023-04-01T01:41:05;99433.84;;;8.24;74.97
79123;BME280;68526;44.600;26.032;2023-04-01T01:41:23;99429.19;;;8.25;75.11
79123;BME280;68526;44.600;26.032;2023-04-01T01:41:42;99427.72;;;8.27;74.93
79123;BME280;68526;44.600;26.032;2023-04-01T01:42:04;99425.34;;;8.26;75.14
79123;BME280;68526;44.600;26.032;2023-04-01T01:42:22;99434.78;;;8.28;75.18
79123;BME280;68526;44.600;26.032;2023-04-01T01:42:43;99430.63;;;8.31;75.06
79123;BME280;68526;44.600;26.032;2023-04-01T01:43:05;99433.66;;;8.29;75.24
79123;BME280;68526;44.600;26.032;2023-04-01T01:43:24;99431.72;;;8.30;74.92
79123;BME280;68526;44.600;26.032;2023-04-01T01:43:43;99412.22;;;8.19;75.00
79123;BME280;68526;44.600;26.032;2023-04-01T01:44:03;99434.78;;;8.28;74.89
79123;BME280;68526;44.600;26.032;2023-04-01T01:44:21;99429.00;;;8.30;74.99
79123;BME280;68526;44.600;26.032;2023-04-01T01:44:38;99430.94;;;8.29;74.92
79123;BME280;68526;44.600;26.032;2023-04-01T01:44:56;99433.34;;;8.31;74.89
79123;BME280;68526;44.600;26.032;2023-04-01T01:45:19;99428.69;;;8.32;75.00